sensor_id;sensor_type;location;lat;lon;timestamp;temperature;humidity
52387;DHT22;38317;53.084;6.960;2023-06-22T00:01:58;18.10;99.90
52387;DHT22;38317;53.084;6.960;2023-06-22T00:04:24;18.10;99.90
52387;DHT22;38317;53.084;6.960;2023-06-22T00:06:50;18.10;99.90
52387;DHT22;38317;53.084;6.960;2023-06-22T00:09:16;18.00;99.90
52387;DHT22;38317;53.084;6.960;2023-06-22T00:11:42;18.10;99.90
52387;DHT22;38317;53.084;6.960;2023-06-22T00:14:08;18.00;99.90
52387;DHT22;38317;53.084;6.960;2023-06-22T00:16:34;18.00;99.90
52387;DHT22;38317;53.084;6.960;2023-06-22T00:19:00;18.00;99.90
52387;DHT22;38317;53.084;6.960;2023-06-22T00:21:27;17.90;99.90
52387;DHT22;38317;53.084;6.960;2023-06-22T00:23:53;17.90;99.90
52387;DHT22;38317;53.084;6.960;2023-06-22T00:26:19;17.90;99.90
52387;DHT22;38317;53.084;6.960;2023-06-22T00:28:46;17.80;99.90
52387;DHT22;38317;53.084;6.960;2023-06-22T00:31:12;17.80;99.90
52387;DHT22;38317;53.084;6.960;2023-06-22T00:33:38;17.80;99.90
52387;DHT22;38317;53.084;6.960;2023-06-22T00:36:04;17.80;99.90
52387;DHT22;38317;53.084;6.960;2023-06-22T00:38:30;17.70;99.90
52387;DHT22;38317;53.084;6.960;2023-06-22T00:40:56;17.70;99.90
52387;DHT22;38317;53.084;6.960;2023-06-22T00:43:22;17.70;99.90
52387;DHT22;38317;53.084;6.960;2023-06-22T00:45:48;17.70;99.90
52387;DHT22;38317;53.084;6.960;2023-06-22T00:48:14;17.70;99.90
52387;DHT22;38317;53.084;6.960;2023-06-22T00:50:40;17.60;99.90
52387;DHT22;38317;53.084;6.960;2023-06-22T00:53:07;17.60;99.90
52387;DHT22;38317;53.084;6.960;2023-06-22T00:55:39;17.60;99.90
52387;DHT22;38317;53.084;6.960;2023-06-22T00:58:07;17.60;99.90
52387;DHT22;38317;53.084;6.960;2023-06-22T01:00:36;17.60;99.90
52387;DHT22;38317;53.084;6.960;2023-06-22T01:03:03;17.50;99.90
52387;DHT22;38317;53.084;6.960;2023-06-22T01:05:31;17.50;99.90
52387;DHT22;38317;53.084;6.960;2023-06-22T01:10:55;17.50;99.90
52387;DHT22;38317;53.084;6.960;2023-06-22T01:16:23;17.50;99.90
52387;DHT22;38317;53.084;6.960;2023-06-22T01:18:52;17.40;99.90
52387;DHT22;38317;53.084;6.960;2023-06-22T01:21:22;17.40;99.90
52387;DHT22;38317;53.084;6.960;2023-06-22T01:26:43;17.40;99.90
52387;DHT22;38317;53.084;6.960;2023-06-22T01:29:12;17.40;99.90
52387;DHT22;38317;53.084;6.960;2023-06-22T01:31:41;17.40;99.90
52387;DHT22;38317;53.084;6.960;2023-06-22T01:34:09;17.30;99.90
52387;DHT22;38317;53.084;6.960;2023-06-22T01:36:35;17.30;99.90
52387;DHT22;38317;53.084;6.960;2023-06-22T01:39:02;17.30;99.90
52387;DHT22;38317;53.084;6.960;2023-06-22T01:41:30;17.30;99.90
52387;DHT22;38317;53.084;6.960;2023-06-22T01:43:56;17.20;99.90
52387;DHT22;38317;53.084;6.960;2023-06-22T01:46:23;17.20;99.90
52387;DHT22;38317;53.084;6.960;2023-06-22T01:48:49;17.20;99.90
52387;DHT22;38317;53.084;6.960;2023-06-22T01:51:16;17.20;99.90
52387;DHT22;38317;53.084;6.960;2023-06-22T01:53:42;17.20;99.90
52387;DHT22;38317;53.084;6.960;2023-06-22T01:56:08;17.20;99.90
52387;DHT22;38317;53.084;6.960;2023-06-22T01:58:37;17.10;99.90
52387;DHT22;38317;53.084;6.960;2023-06-22T02:01:13;17.10;99.90
52387;DHT22;38317;53.084;6.960;2023-06-22T02:03:48;17.10;99.90
52387;DHT22;38317;53.084;6.960;2023-06-22T02:06:31;17.10;99.90
52387;DHT22;38317;53.084;6.960;2023-06-22T02:09:02;17.00;99.90
52387;DHT22;38317;53.084;6.960;2023-06-22T02:11:31;17.00;99.90
52387;DHT22;38317;53.084;6.960;2023-06-22T02:13:58;17.00;99.90
52387;DHT22;38317;53.084;6.960;2023-06-22T02:16:25;17.00;99.90
52387;DHT22;38317;53.084;6.960;2023-06-22T02:18:55;17.00;99.90
52387;DHT22;38317;53.084;6.960;2023-06-22T02:21:27;17.00;99.90
52387;DHT22;38317;53.084;6.960;2023-06-22T02:23:53;17.00;99.90
52387;DHT22;38317;53.084;6.960;2023-06-22T02:26:18;17.00;99.90
52387;DHT22;38317;53.084;6.960;2023-06-22T02:28:44;17.00;99.90
52387;DHT22;38317;53.084;6.960;2023-06-22T02:31:11;17.00;99.90
52387;DHT22;38317;53.084;6.960;2023-06-22T02:33:37;16.90;99.90
52387;DHT22;38317;53.084;6.960;2023-06-22T02:36:03;16.90;99.90
52387;DHT22;38317;53.084;6.960;2023-06-22T02:38:31;16.80;99.90
52387;DHT22;38317;53.084;6.960;2023-06-22T02:41:00;16.80;99.90
52387;DHT22;38317;53.084;6.960;2023-06-22T02:43:26;16.80;99.90
52387;DHT22;38317;53.084;6.960;2023-06-22T02:45:51;16.80;99.90
52387;DHT22;38317;53.084;6.960;2023-06-22T02:48:17;16.70;99.90
52387;DHT22;38317;53.084;6.960;2023-06-22T02:50:43;16.70;99.90
52387;DHT22;38317;53.084;6.960;2023-06-22T02:53:08;16.70;99.90
52387;DHT22;38317;53.084;6.960;2023-06-22T02:55:34;16.70;99.90
52387;DHT22;38317;53.084;6.960;2023-06-22T02:58:00;16.60;99.90
52387;DHT22;38317;53.084;6.960;2023-06-22T03:00:31;16.60;99.90
52387;DHT22;38317;53.084;6.960;2023-06-22T03:02:57;16.60;99.90
52387;DHT22;38317;53.084;6.960;2023-06-22T03:05:23;16.60;99.90
52387;DHT22;38317;53.084;6.960;2023-06-22T03:07:49;16.60;99.90
52387;DHT22;38317;53.084;6.960;2023-06-22T03:10:15;16.60;99.90
52387;DHT22;38317;53.084;6.960;2023-06-22T03:12:42;16.60;99.90
52387;DHT22;38317;53.084;6.960;2023-06-22T03:15:10;16.60;99.90
52387;DHT22;38317;53.084;6.960;2023-06-22T03:17:37;16.60;99.90
52387;DHT22;38317;53.084;6.960;2023-06-22T03:20:05;16.60;99.90
52387;DHT22;38317;53.084;6.960;2023-06-22T03:22:35;16.60;99.90
52387;DHT22;38317;53.084;6.960;2023-06-22T03:25:01;16.50;99.90
52387;DHT22;38317;53.084;6.960;2023-06-22T03:27:27;16.50;99.90
52387;DHT22;38317;53.084;6.960;2023-06-22T03:29:53;16.50;99.90
52387;DHT22;38317;53.084;6.960;2023-06-22T03:32:18;16.40;99.90
52387;DHT22;38317;53.084;6.960;2023-06-22T03:34:44;16.40;99.90
52387;DHT22;38317;53.084;6.960;2023-06-22T03:37:14;16.40;99.90
52387;DHT22;38317;53.084;6.960;2023-06-22T03:39:41;16.40;99.90
52387;DHT22;38317;53.084;6.960;2023-06-22T03:42:07;16.40;99.90
52387;DHT22;38317;53.084;6.960;2023-06-22T03:44:33;16.40;99.90
52387;DHT22;38317;53.084;6.960;2023-06-22T03:46:58;16.50;99.90
52387;DHT22;38317;53.084;6.960;2023-06-22T03:49:24;16.40;99.90
52387;DHT22;38317;53.084;6.960;2023-06-22T03:51:50;16.40;99.90
52387;DHT22;38317;53.084;6.960;2023-06-22T03:54:15;16.40;99.90
52387;DHT22;38317;53.084;6.960;2023-06-22T03:56:41;16.40;99.90
52387;DHT22;38317;53.084;6.960;2023-06-22T03:59:07;16.40;99.90
52387;DHT22;38317;53.084;6.960;2023-06-22T04:01:32;16.40;99.90
52387;DHT22;38317;53.084;6.960;2023-06-22T04:03:58;16.30;99.90
52387;DHT22;38317;53.084;6.960;2023-06-22T04:06:24;16.30;99.90
52387;DHT22;38317;53.084;6.960;2023-06-22T04:08:49;16.00;99.90
52387;DHT22;38317;53.084;6.960;2023-06-22T04:11:19;16.30;99.90
52387;DHT22;38317;53.084;6.960;2023-06-22T04:13:45;16.40;99.90
52387;DHT22;38317;53.084;6.960;2023-06-22T04:16:11;16.30;99.90
52387;DHT22;38317;53.084;6.960;2023-06-22T04:18:36;16.40;99.90
52387;DHT22;38317;53.084;6.960;2023-06-22T04:21:02;16.40;99.90
52387;DHT22;38317;53.084;6.960;2023-06-22T04:23:28;16.40;99.90
52387;DHT22;38317;53.084;6.960;2023-06-22T04:25:54;16.50;99.90
52387;DHT22;38317;53.084;6.960;2023-06-22T04:28:22;16.60;99.90
52387;DHT22;38317;53.084;6.960;2023-06-22T04:30:47;16.60;99.90
52387;DHT22;38317;53.084;6.960;2023-06-22T04:33:14;16.60;99.90
52387;DHT22;38317;53.084;6.960;2023-06-22T04:35:40;16.60;99.90
52387;DHT22;38317;53.084;6.960;2023-06-22T04:38:09;16.60;99.90
52387;DHT22;38317;53.084;6.960;2023-06-22T04:40:35;16.60;99.90
52387;DHT22;38317;53.084;6.960;2023-06-22T04:43:01;16.70;99.90
52387;DHT22;38317;53.084;6.960;2023-06-22T04:45:28;16.70;99.90
52387;DHT22;38317;53.084;6.960;2023-06-22T04:47:57;16.70;99.90
52387;DHT22;38317;53.084;6.960;2023-06-22T04:50:23;16.70;99.90
52387;DHT22;38317;53.084;6.960;2023-06-22T04:52:49;16.80;99.90
52387;DHT22;38317;53.084;6.960;2023-06-22T04:55:15;16.80;99.90
52387;DHT22;38317;53.084;6.960;2023-06-22T04:57:47;16.80;99.90
52387;DHT22;38317;53.084;6.960;2023-06-22T05:00:20;16.90;99.90
52387;DHT22;38317;53.084;6.960;2023-06-22T05:02:49;16.90;99.90
52387;DHT22;38317;53.084;6.960;2023-06-22T05:05:15;16.90;99.90
52387;DHT22;38317;53.084;6.960;2023-06-22T05:07:45;17.00;99.90
52387;DHT22;38317;53.084;6.960;2023-06-22T05:10:13;17.00;99.90
52387;DHT22;38317;53.084;6.960;2023-06-22T05:12:40;17.00;99.90
52387;DHT22;38317;53.084;6.960;2023-06-22T05:15:10;17.10;99.90
52387;DHT22;38317;53.084;6.960;2023-06-22T05:17:36;17.10;99.90
52387;DHT22;38317;53.084;6.960;2023-06-22T05:20:02;17.20;99.90
52387;DHT22;38317;53.084;6.960;2023-06-22T05:22:32;17.20;99.90
52387;DHT22;38317;53.084;6.960;2023-06-22T05:24:57;17.30;99.90
52387;DHT22;38317;53.084;6.960;2023-06-22T05:27:23;17.30;99.90
52387;DHT22;38317;53.084;6.960;2023-06-22T05:29:49;17.30;99.90
52387;DHT22;38317;53.084;6.960;2023-06-22T05:32:14;17.40;99.90
52387;DHT22;38317;53.084;6.960;2023-06-22T05:34:40;17.40;99.90
52387;DHT22;38317;53.084;6.960;2023-06-22T05:37:06;17.40;99.90
52387;DHT22;38317;53.084;6.960;2023-06-22T05:39:31;17.50;99.90
52387;DHT22;38317;53.084;6.960;2023-06-22T05:41:57;17.50;99.90
52387;DHT22;38317;53.084;6.960;2023-06-22T05:44:23;17.60;99.90
52387;DHT22;38317;53.084;6.960;2023-06-22T05:46:49;17.60;99.90
52387;DHT22;38317;53.084;6.960;2023-06-22T05:49:15;17.60;99.90
52387;DHT22;38317;53.084;6.960;2023-06-22T05:51:41;17.70;99.90
52387;DHT22;38317;53.084;6.960;2023-06-22T05:54:07;17.70;99.90
52387;DHT22;38317;53.084;6.960;2023-06-22T05:56:34;17.70;99.90
52387;DHT22;38317;53.084;6.960;2023-06-22T05:59:00;17.80;99.90
52387;DHT22;38317;53.084;6.960;2023-06-22T06:01:25;17.80;99.90
52387;DHT22;38317;53.084;6.960;2023-06-22T06:03:52;17.80;99.90
52387;DHT22;38317;53.084;6.960;2023-06-22T06:06:18;17.90;99.90
52387;DHT22;38317;53.084;6.960;2023-06-22T06:08:46;17.90;99.90
52387;DHT22;38317;53.084;6.960;2023-06-22T06:11:14;18.00;99.90
52387;DHT22;38317;53.084;6.960;2023-06-22T06:13:40;18.00;99.90
52387;DHT22;38317;53.084;6.960;2023-06-22T06:16:05;18.10;99.90
52387;DHT22;38317;53.084;6.960;2023-06-22T06:18:31;18.10;99.90
52387;DHT22;38317;53.084;6.960;2023-06-22T06:20:57;18.10;99.90
52387;DHT22;38317;53.084;6.960;2023-06-22T06:23:22;18.20;99.90
52387;DHT22;38317;53.084;6.960;2023-06-22T06:25:48;18.30;99.90
52387;DHT22;38317;53.084;6.960;2023-06-22T06:28:14;18.30;99.90
52387;DHT22;38317;53.084;6.960;2023-06-22T06:30:39;18.40;99.90
52387;DHT22;38317;53.084;6.960;2023-06-22T06:33:06;18.40;99.90
52387;DHT22;38317;53.084;6.960;2023-06-22T06:35:34;18.40;99.90
52387;DHT22;38317;53.084;6.960;2023-06-22T06:38:00;18.50;99.90
52387;DHT22;38317;53.084;6.960;2023-06-22T06:40:25;18.50;99.90
52387;DHT22;38317;53.084;6.960;2023-06-22T06:42:51;18.60;99.90
52387;DHT22;38317;53.084;6.960;2023-06-22T06:45:20;18.60;99.90
52387;DHT22;38317;53.084;6.960;2023-06-22T06:47:48;18.60;99.90
52387;DHT22;38317;53.084;6.960;2023-06-22T06:50:14;18.70;99.90
52387;DHT22;38317;53.084;6.960;2023-06-22T06:52:40;18.70;99.90
52387;DHT22;38317;53.084;6.960;2023-06-22T06:55:07;18.80;99.90
52387;DHT22;38317;53.084;6.960;2023-06-22T06:57:35;18.90;99.90
52387;DHT22;38317;53.084;6.960;2023-06-22T07:00:06;19.00;99.90
52387;DHT22;38317;53.084;6.960;2023-06-22T07:02:35;19.00;99.90
52387;DHT22;38317;53.084;6.960;2023-06-22T07:05:01;19.10;99.90
52387;DHT22;38317;53.084;6.960;2023-06-22T07:07:30;19.20;99.90
52387;DHT22;38317;53.084;6.960;2023-06-22T07:09:55;19.30;99.90
52387;DHT22;38317;53.084;6.960;2023-06-22T07:12:21;19.40;99.90
52387;DHT22;38317;53.084;6.960;2023-06-22T07:14:47;19.40;99.90
52387;DHT22;38317;53.084;6.960;2023-06-22T07:17:13;19.50;99.90
52387;DHT22;38317;53.084;6.960;2023-06-22T07:19:39;19.60;99.90
52387;DHT22;38317;53.084;6.960;2023-06-22T07:22:05;19.70;99.90
52387;DHT22;38317;53.084;6.960;2023-06-22T07:24:31;19.80;99.90
52387;DHT22;38317;53.084;6.960;2023-06-22T07:26:58;19.80;99.90
52387;DHT22;38317;53.084;6.960;2023-06-22T07:29:25;20.00;99.90
52387;DHT22;38317;53.084;6.960;2023-06-22T07:31:52;20.10;99.90
52387;DHT22;38317;53.084;6.960;2023-06-22T07:34:18;20.10;99.90
52387;DHT22;38317;53.084;6.960;2023-06-22T07:36:44;20.20;99.90
52387;DHT22;38317;53.084;6.960;2023-06-22T07:39:14;20.30;99.90
52387;DHT22;38317;53.084;6.960;2023-06-22T07:41:40;20.40;99.90
52387;DHT22;38317;53.084;6.960;2023-06-22T07:44:09;20.50;99.90
52387;DHT22;38317;53.084;6.960;2023-06-22T07:46:34;20.60;99.90
52387;DHT22;38317;53.084;6.960;2023-06-22T07:49:00;20.70;99.90
52387;DHT22;38317;53.084;6.960;2023-06-22T07:51:26;20.90;99.90
52387;DHT22;38317;53.084;6.960;2023-06-22T07:53:53;21.00;99.90
52387;DHT22;38317;53.084;6.960;2023-06-22T07:56:18;21.10;99.90
52387;DHT22;38317;53.084;6.960;2023-06-22T07:58:46;21.20;99.90
52387;DHT22;38317;53.084;6.960;2023-06-22T08:01:12;21.40;99.90
52387;DHT22;38317;53.084;6.960;2023-06-22T08:03:38;21.60;99.90
52387;DHT22;38317;53.084;6.960;2023-06-22T08:06:06;21.80;99.90
52387;DHT22;38317;53.084;6.960;2023-06-22T08:08:33;22.00;99.90
52387;DHT22;38317;53.084;6.960;2023-06-22T08:10:59;22.20;99.90
52387;DHT22;38317;53.084;6.960;2023-06-22T08:13:25;22.40;99.90
52387;DHT22;38317;53.084;6.960;2023-06-22T08:15:51;22.50;99.90
52387;DHT22;38317;53.084;6.960;2023-06-22T08:18:16;22.60;99.90
52387;DHT22;38317;53.084;6.960;2023-06-22T08:20:42;22.80;99.90
52387;DHT22;38317;53.084;6.960;2023-06-22T08:23:08;23.00;99.90
52387;DHT22;38317;53.084;6.960;2023-06-22T08:25:34;23.10;99.90
52387;DHT22;38317;53.084;6.960;2023-06-22T08:28:01;23.20;99.90
52387;DHT22;38317;53.084;6.960;2023-06-22T08:30:27;23.30;99.90
52387;DHT22;38317;53.084;6.960;2023-06-22T08:32:53;23.50;99.90
52387;DHT22;38317;53.084;6.960;2023-06-22T08:35:23;23.50;99.90
52387;DHT22;38317;53.084;6.960;2023-06-22T08:37:49;23.70;99.90
52387;DHT22;38317;53.084;6.960;2023-06-22T08:40:19;24.00;99.90
52387;DHT22;38317;53.084;6.960;2023-06-22T08:42:48;24.10;99.90
52387;DHT22;38317;53.084;6.960;2023-06-22T08:45:14;24.10;99.90
52387;DHT22;38317;53.084;6.960;2023-06-22T08:47:41;24.20;99.90
52387;DHT22;38317;53.084;6.960;2023-06-22T08:50:08;24.20;99.90
52387;DHT22;38317;53.084;6.960;2023-06-22T08:52:34;24.30;99.90
52387;DHT22;38317;53.084;6.960;2023-06-22T08:55:00;24.40;99.90
52387;DHT22;38317;53.084;6.960;2023-06-22T08:57:27;24.50;99.90
52387;DHT22;38317;53.084;6.960;2023-06-22T08:59:53;24.70;99.90
52387;DHT22;38317;53.084;6.960;2023-06-22T09:02:19;24.90;99.90
52387;DHT22;38317;53.084;6.960;2023-06-22T09:04:48;25.00;99.90
52387;DHT22;38317;53.084;6.960;2023-06-22T09:07:21;25.10;99.90
52387;DHT22;38317;53.084;6.960;2023-06-22T09:09:49;25.10;99.90
52387;DHT22;38317;53.084;6.960;2023-06-22T09:12:14;25.20;99.90
52387;DHT22;38317;53.084;6.960;2023-06-22T09:14:40;25.30;99.90
52387;DHT22;38317;53.084;6.960;2023-06-22T09:17:06;25.30;99.90
52387;DHT22;38317;53.084;6.960;2023-06-22T09:19:32;25.30;99.90
52387;DHT22;38317;53.084;6.960;2023-06-22T09:21:58;25.50;99.90
52387;DHT22;38317;53.084;6.960;2023-06-22T09:24:24;25.60;99.90
52387;DHT22;38317;53.084;6.960;2023-06-22T09:26:49;25.80;99.90
52387;DHT22;38317;53.084;6.960;2023-06-22T09:29:16;25.80;99.90
52387;DHT22;38317;53.084;6.960;2023-06-22T09:31:42;25.90;99.90
52387;DHT22;38317;53.084;6.960;2023-06-22T09:34:08;25.90;99.90
52387;DHT22;38317;53.084;6.960;2023-06-22T09:36:33;25.90;99.90
52387;DHT22;38317;53.084;6.960;2023-06-22T09:38:59;26.00;99.90
52387;DHT22;38317;53.084;6.960;2023-06-22T09:41:31;26.00;99.90
52387;DHT22;38317;53.084;6.960;2023-06-22T09:43:57;26.00;99.90
52387;DHT22;38317;53.084;6.960;2023-06-22T09:46:23;25.90;99.90
52387;DHT22;38317;53.084;6.960;2023-06-22T09:48:50;26.10;99.90
52387;DHT22;38317;53.084;6.960;2023-06-22T09:51:16;26.20;99.90
52387;DHT22;38317;53.084;6.960;2023-06-22T09:53:44;26.40;99.90
52387;DHT22;38317;53.084;6.960;2023-06-22T09:56:10;26.60;99.90
52387;DHT22;38317;53.084;6.960;2023-06-22T09:58:43;26.60;99.90
52387;DHT22;38317;53.084;6.960;2023-06-22T10:01:09;26.50;99.90
52387;DHT22;38317;53.084;6.960;2023-06-22T10:03:36;26.50;99.90
52387;DHT22;38317;53.084;6.960;2023-06-22T10:06:02;26.50;99.90
52387;DHT22;38317;53.084;6.960;2023-06-22T10:08:28;26.60;99.90
52387;DHT22;38317;53.084;6.960;2023-06-22T10:10:54;26.70;99.90
52387;DHT22;38317;53.084;6.960;2023-06-22T10:13:19;26.90;99.90
52387;DHT22;38317;53.084;6.960;2023-06-22T10:15:45;27.00;99.90
52387;DHT22;38317;53.084;6.960;2023-06-22T10:18:18;26.90;99.90
52387;DHT22;38317;53.084;6.960;2023-06-22T10:20:49;26.80;99.90
52387;DHT22;38317;53.084;6.960;2023-06-22T10:23:21;26.90;99.90
52387;DHT22;38317;53.084;6.960;2023-06-22T10:25:47;27.10;99.90
52387;DHT22;38317;53.084;6.960;2023-06-22T10:28:13;27.10;99.90
52387;DHT22;38317;53.084;6.960;2023-06-22T10:30:42;27.20;99.90
52387;DHT22;38317;53.084;6.960;2023-06-22T10:33:09;27.30;99.90
52387;DHT22;38317;53.084;6.960;2023-06-22T10:35:35;27.40;99.90
52387;DHT22;38317;53.084;6.960;2023-06-22T10:38:03;27.70;99.90
52387;DHT22;38317;53.084;6.960;2023-06-22T10:40:29;27.70;99.90
52387;DHT22;38317;53.084;6.960;2023-06-22T10:42:54;27.70;99.90
52387;DHT22;38317;53.084;6.960;2023-06-22T10:45:20;27.50;99.90
52387;DHT22;38317;53.084;6.960;2023-06-22T10:47:46;27.40;99.90
52387;DHT22;38317;53.084;6.960;2023-06-22T10:50:12;27.50;99.90
52387;DHT22;38317;53.084;6.960;2023-06-22T10:52:39;27.50;99.90
52387;DHT22;38317;53.084;6.960;2023-06-22T10:55:05;27.40;99.90
52387;DHT22;38317;53.084;6.960;2023-06-22T10:57:31;27.40;99.90
52387;DHT22;38317;53.084;6.960;2023-06-22T10:59:57;27.50;99.90
52387;DHT22;38317;53.084;6.960;2023-06-22T11:02:23;27.40;99.90
52387;DHT22;38317;53.084;6.960;2023-06-22T11:04:49;27.40;99.90
52387;DHT22;38317;53.084;6.960;2023-06-22T11:07:16;27.30;99.90
52387;DHT22;38317;53.084;6.960;2023-06-22T11:09:43;27.20;99.90
52387;DHT22;38317;53.084;6.960;2023-06-22T11:12:09;27.20;99.90
52387;DHT22;38317;53.084;6.960;2023-06-22T11:14:35;27.30;99.90
52387;DHT22;38317;53.084;6.960;2023-06-22T11:17:00;27.40;99.90
52387;DHT22;38317;53.084;6.960;2023-06-22T11:19:26;27.60;99.90
52387;DHT22;38317;53.084;6.960;2023-06-22T11:21:52;27.50;99.90
52387;DHT22;38317;53.084;6.960;2023-06-22T11:24:18;27.40;99.90
52387;DHT22;38317;53.084;6.960;2023-06-22T11:26:43;27.20;99.90
52387;DHT22;38317;53.084;6.960;2023-06-22T11:29:09;27.00;99.90
52387;DHT22;38317;53.084;6.960;2023-06-22T11:31:36;27.00;99.90
52387;DHT22;38317;53.084;6.960;2023-06-22T11:34:02;26.90;99.90
52387;DHT22;38317;53.084;6.960;2023-06-22T11:36:29;26.90;99.90
52387;DHT22;38317;53.084;6.960;2023-06-22T11:38:56;26.70;99.90
52387;DHT22;38317;53.084;6.960;2023-06-22T11:41:22;26.60;99.90
52387;DHT22;38317;53.084;6.960;2023-06-22T11:43:48;26.60;99.90
52387;DHT22;38317;53.084;6.960;2023-06-22T11:46:14;26.50;99.90
52387;DHT22;38317;53.084;6.960;2023-06-22T11:48:39;26.50;99.90
52387;DHT22;38317;53.084;6.960;2023-06-22T11:51:05;26.40;99.90
52387;DHT22;38317;53.084;6.960;2023-06-22T11:53:32;26.40;99.90
52387;DHT22;38317;53.084;6.960;2023-06-22T11:55:57;26.40;99.90
52387;DHT22;38317;53.084;6.960;2023-06-22T11:58:23;26.40;99.90
52387;DHT22;38317;53.084;6.960;2023-06-22T12:00:49;26.30;99.90
52387;DHT22;38317;53.084;6.960;2023-06-22T12:03:15;26.20;99.90
52387;DHT22;38317;53.084;6.960;2023-06-22T12:05:42;26.10;99.90
52387;DHT22;38317;53.084;6.960;2023-06-22T12:08:08;26.10;99.90
52387;DHT22;38317;53.084;6.960;2023-06-22T12:10:33;26.10;99.90
52387;DHT22;38317;53.084;6.960;2023-06-22T12:12:59;26.00;99.90
52387;DHT22;38317;53.084;6.960;2023-06-22T12:15:26;25.90;99.90
52387;DHT22;38317;53.084;6.960;2023-06-22T12:17:52;25.80;99.90
52387;DHT22;38317;53.084;6.960;2023-06-22T12:20:18;25.80;99.90
52387;DHT22;38317;53.084;6.960;2023-06-22T12:22:44;25.70;99.90
52387;DHT22;38317;53.084;6.960;2023-06-22T12:25:10;25.70;99.90
52387;DHT22;38317;53.084;6.960;2023-06-22T12:27:36;25.50;99.90
52387;DHT22;38317;53.084;6.960;2023-06-22T12:30:03;25.50;99.90
52387;DHT22;38317;53.084;6.960;2023-06-22T12:32:28;25.50;99.90
52387;DHT22;38317;53.084;6.960;2023-06-22T12:34:55;25.50;99.90
52387;DHT22;38317;53.084;6.960;2023-06-22T12:37:21;25.60;99.90
52387;DHT22;38317;53.084;6.960;2023-06-22T12:39:46;25.60;99.90
52387;DHT22;38317;53.084;6.960;2023-06-22T12:42:12;25.70;99.90
52387;DHT22;38317;53.084;6.960;2023-06-22T12:44:38;25.70;99.90
52387;DHT22;38317;53.084;6.960;2023-06-22T12:47:05;25.80;99.90
52387;DHT22;38317;53.084;6.960;2023-06-22T12:49:31;25.70;99.90
52387;DHT22;38317;53.084;6.960;2023-06-22T12:51:57;25.60;99.90
52387;DHT22;38317;53.084;6.960;2023-06-22T12:54:22;25.50;99.90
52387;DHT22;38317;53.084;6.960;2023-06-22T12:56:50;25.30;99.90
52387;DHT22;38317;53.084;6.960;2023-06-22T12:59:16;25.30;99.90
52387;DHT22;38317;53.084;6.960;2023-06-22T13:01:43;25.10;99.90
52387;DHT22;38317;53.084;6.960;2023-06-22T13:04:13;25.00;99.90
52387;DHT22;38317;53.084;6.960;2023-06-22T13:06:41;25.00;99.90
52387;DHT22;38317;53.084;6.960;2023-06-22T13:09:07;25.00;99.90
52387;DHT22;38317;53.084;6.960;2023-06-22T13:11:34;24.90;99.90
52387;DHT22;38317;53.084;6.960;2023-06-22T13:14:00;24.80;99.90
52387;DHT22;38317;53.084;6.960;2023-06-22T13:16:25;24.80;99.90
52387;DHT22;38317;53.084;6.960;2023-06-22T13:18:51;24.80;99.90
52387;DHT22;38317;53.084;6.960;2023-06-22T13:21:17;24.70;99.90
52387;DHT22;38317;53.084;6.960;2023-06-22T13:23:42;24.60;99.90
52387;DHT22;38317;53.084;6.960;2023-06-22T13:26:08;24.60;99.90
52387;DHT22;38317;53.084;6.960;2023-06-22T13:28:34;24.60;99.90
52387;DHT22;38317;53.084;6.960;2023-06-22T13:30:59;24.50;99.90
52387;DHT22;38317;53.084;6.960;2023-06-22T13:33:25;24.50;99.90
52387;DHT22;38317;53.084;6.960;2023-06-22T13:35:51;24.40;99.90
52387;DHT22;38317;53.084;6.960;2023-06-22T13:38:17;24.40;99.90
52387;DHT22;38317;53.084;6.960;2023-06-22T13:40:43;24.40;99.90
52387;DHT22;38317;53.084;6.960;2023-06-22T13:43:08;24.30;99.90
52387;DHT22;38317;53.084;6.960;2023-06-22T13:45:34;24.30;99.90
52387;DHT22;38317;53.084;6.960;2023-06-22T13:48:00;24.30;99.90
52387;DHT22;38317;53.084;6.960;2023-06-22T13:50:26;24.20;99.90
52387;DHT22;38317;53.084;6.960;2023-06-22T13:52:52;24.20;99.90
52387;DHT22;38317;53.084;6.960;2023-06-22T13:55:17;24.20;99.90
52387;DHT22;38317;53.084;6.960;2023-06-22T13:57:46;24.20;99.90
52387;DHT22;38317;53.084;6.960;2023-06-22T14:00:12;24.20;99.90
52387;DHT22;38317;53.084;6.960;2023-06-22T14:02:38;24.10;99.90
52387;DHT22;38317;53.084;6.960;2023-06-22T14:05:05;24.10;99.90
52387;DHT22;38317;53.084;6.960;2023-06-22T14:07:31;24.00;99.90
52387;DHT22;38317;53.084;6.960;2023-06-22T14:09:57;23.90;99.90
52387;DHT22;38317;53.084;6.960;2023-06-22T14:12:23;23.80;99.90
52387;DHT22;38317;53.084;6.960;2023-06-22T14:14:49;23.80;99.90
52387;DHT22;38317;53.084;6.960;2023-06-22T14:17:15;23.70;99.90
52387;DHT22;38317;53.084;6.960;2023-06-22T14:19:41;23.70;99.90
52387;DHT22;38317;53.084;6.960;2023-06-22T14:22:06;23.60;99.90
52387;DHT22;38317;53.084;6.960;2023-06-22T14:24:32;23.50;99.90
52387;DHT22;38317;53.084;6.960;2023-06-22T14:26:58;23.50;99.90
52387;DHT22;38317;53.084;6.960;2023-06-22T14:29:25;23.40;99.90
52387;DHT22;38317;53.084;6.960;2023-06-22T14:31:51;23.40;99.90
52387;DHT22;38317;53.084;6.960;2023-06-22T14:34:16;23.30;99.90
52387;DHT22;38317;53.084;6.960;2023-06-22T14:36:42;23.20;99.90
52387;DHT22;38317;53.084;6.960;2023-06-22T14:39:09;23.20;99.90
52387;DHT22;38317;53.084;6.960;2023-06-22T14:41:35;23.10;99.90
52387;DHT22;38317;53.084;6.960;2023-06-22T14:44:00;23.10;99.90
52387;DHT22;38317;53.084;6.960;2023-06-22T14:46:27;23.00;99.90
52387;DHT22;38317;53.084;6.960;2023-06-22T14:48:52;22.90;99.90
52387;DHT22;38317;53.084;6.960;2023-06-22T14:51:18;22.90;99.90
52387;DHT22;38317;53.084;6.960;2023-06-22T14:53:45;22.90;99.90
52387;DHT22;38317;53.084;6.960;2023-06-22T14:56:12;22.80;99.90
52387;DHT22;38317;53.084;6.960;2023-06-22T14:58:41;22.80;99.90
52387;DHT22;38317;53.084;6.960;2023-06-22T15:01:19;22.70;99.90
52387;DHT22;38317;53.084;6.960;2023-06-22T15:03:45;22.70;99.90
52387;DHT22;38317;53.084;6.960;2023-06-22T15:06:10;22.60;99.90
52387;DHT22;38317;53.084;6.960;2023-06-22T15:08:42;22.70;99.90
52387;DHT22;38317;53.084;6.960;2023-06-22T15:11:08;22.60;99.90
52387;DHT22;38317;53.084;6.960;2023-06-22T15:13:34;22.50;99.90
52387;DHT22;38317;53.084;6.960;2023-06-22T15:16:02;22.50;99.90
52387;DHT22;38317;53.084;6.960;2023-06-22T15:18:31;22.40;99.90
52387;DHT22;38317;53.084;6.960;2023-06-22T15:20:56;22.40;99.90
52387;DHT22;38317;53.084;6.960;2023-06-22T15:23:24;22.30;99.90
52387;DHT22;38317;53.084;6.960;2023-06-22T15:25:49;22.30;99.90
52387;DHT22;38317;53.084;6.960;2023-06-22T15:28:15;22.20;99.90
52387;DHT22;38317;53.084;6.960;2023-06-22T15:30:41;22.10;99.90
52387;DHT22;38317;53.084;6.960;2023-06-22T15:33:06;22.10;99.90
52387;DHT22;38317;53.084;6.960;2023-06-22T15:35:32;22.00;99.90